Time;durP1;ratioP1;P1;durP2;ratioP2;P2;SDS_P1;SDS_P2;PMS_P1;PMS_P2;Temp;Humidity;BMP_temperature;BMP_pressure;BME280_temperature;BME280_humidity;BME280_pressure;Samples;Min_cycle;Max_cycle;Signal;HPM_P1;HPM_P2
2021/07/18 00:02:06;;;;;;;11.48;10.48;;;;;;;19.94;92.32;99077.38;4994015;28;102653;-70
2021/07/18 00:04:35;;;;;;;12.20;11.07;;;;;;;19.91;92.32;99072.31;4994012;28;102722;-70
2021/07/18 00:07:04;;;;;;;12.63;11.38;;;;;;;19.91;91.96;99075.00;4993570;28;103737;-69
2021/07/18 00:09:32;;;;;;;10.93;9.95;;;;;;;19.83;92.70;99074.13;4992555;28;104288;-69
2021/07/18 00:12:01;;;;;;;9.55;8.68;;;;;;;19.80;92.27;99069.09;4978162;28;102754;-69
2021/07/18 00:14:30;;;;;;;17.98;14.48;;;;;;;19.63;92.67;99073.53;4991223;28;102731;-70
2021/07/18 00:16:59;;;;;;;14.15;12.38;;;;;;;19.63;92.89;99068.16;4992774;28;103331;-70
2021/07/18 00:19:27;;;;;;;12.68;11.40;;;;;;;19.66;92.48;99075.88;4991007;28;104412;-69
2021/07/18 00:21:55;;;;;;;13.95;12.02;;;;;;;19.64;92.01;99075.22;4992188;28;103237;-69
2021/07/18 00:24:23;;;;;;;10.32;9.48;;;;;;;19.52;93.36;99084.50;4996121;28;102672;-70
2021/07/18 00:26:51;;;;;;;10.52;9.55;;;;;;;19.58;92.58;99082.03;4990429;28;102723;-70
2021/07/18 00:29:19;;;;;;;9.10;8.30;;;;;;;19.50;92.79;99082.00;4992118;28;103560;-70
2021/07/18 00:31:47;;;;;;;10.25;9.35;;;;;;;19.52;92.16;99077.31;4992669;28;103120;-70
2021/07/18 00:34:17;;;;;;;9.32;8.52;;;;;;;19.45;92.32;99075.44;4991870;28;102917;-69
2021/07/18 00:36:45;;;;;;;13.35;11.68;;;;;;;19.42;92.47;99075.75;4992726;28;103239;-70
2021/07/18 00:39:15;;;;;;;9.10;8.30;;;;;;;19.41;92.73;99074.06;4993762;28;103177;-70
2021/07/18 00:41:43;;;;;;;8.82;8.02;;;;;;;19.37;92.49;99070.81;4990670;28;102689;-70
2021/07/18 00:44:12;;;;;;;8.43;7.72;;;;;;;19.33;92.47;99068.63;4990619;28;102783;-70
2021/07/18 00:46:40;;;;;;;10.00;9.00;;;;;;;19.33;92.17;99064.09;4994075;28;103435;-70
2021/07/18 00:49:08;;;;;;;10.75;9.48;;;;;;;19.28;92.48;99065.56;4975742;28;105983;-70
2021/07/18 00:51:37;;;;;;;10.32;9.02;;;;;;;19.22;92.88;99063.50;4986954;28;102698;-70
2021/07/18 00:54:05;;;;;;;7.75;7.10;;;;;;;19.19;92.79;99069.19;4995103;28;102728;-70
2021/07/18 00:56:34;;;;;;;7.47;6.88;;;;;;;19.20;92.26;99065.53;4992151;28;103105;-70
2021/07/18 00:59:02;;;;;;;12.10;10.85;;;;;;;19.13;92.04;99070.66;4972415;28;103595;-70
2021/07/18 01:01:31;;;;;;;8.57;7.70;;;;;;;19.09;92.92;99064.75;4988764;28;102684;-70
2021/07/18 01:04:00;;;;;;;8.68;7.97;;;;;;;19.09;92.57;99070.09;4991030;28;102657;-70
2021/07/18 01:06:28;;;;;;;7.85;7.15;;;;;;;19.05;92.47;99065.22;4982757;28;103198;-70
2021/07/18 01:08:57;;;;;;;8.30;7.60;;;;;;;19.01;92.73;99064.69;4993387;28;103022;-70
2021/07/18 01:11:25;;;;;;;8.57;7.80;;;;;;;18.94;92.52;99066.31;4992019;28;102697;-70
2021/07/18 01:13:53;;;;;;;9.20;6.90;;;;;;;18.92;92.73;99067.44;4994280;28;102797;-70
2021/07/18 01:16:21;;;;;;;6.65;6.13;;;;;;;18.97;91.86;99065.16;4981599;28;104614;-70
2021/07/18 01:18:50;;;;;;;7.25;6.30;;;;;;;18.93;91.85;99063.78;4977382;28;103162;-70
2021/07/18 01:21:22;;;;;;;8.52;7.70;;;;;;;18.91;91.43;99063.09;4991123;28;102694;-70
2021/07/18 01:23:51;;;;;;;6.60;6.00;;;;;;;18.79;92.46;99062.50;4994340;28;102625;-70
2021/07/18 01:26:19;;;;;;;7.80;7.00;;;;;;;18.72;92.69;99058.78;4991859;28;103241;-70
2021/07/18 01:28:48;;;;;;;6.07;5.57;;;;;;;18.73;92.39;99057.75;4968224;28;106306;-70
2021/07/18 01:31:16;;;;;;;7.53;6.93;;;;;;;18.70;92.51;99060.75;4992627;28;102618;-69
2021/07/18 01:33:44;;;;;;;6.75;6.22;;;;;;;18.66;92.41;99064.72;4991423;28;102744;-68
2021/07/18 01:36:13;;;;;;;6.18;5.57;;;;;;;18.66;92.11;99055.84;4993778;28;103189;-69
2021/07/18 01:38:41;;;;;;;9.45;8.55;;;;;;;18.52;92.11;99055.41;4992035;28;103120;-69
2021/07/18 01:41:10;;;;;;;7.03;6.43;;;;;;;18.50;92.16;99056.53;4988901;28;102711;-69
2021/07/18 01:43:38;;;;;;;8.70;7.30;;;;;;;18.50;91.67;99061.88;4992012;28;102688;-69
2021/07/18 01:46:06;;;;;;;7.18;5.78;;;;;;;18.46;91.56;99063.16;4991738;28;103290;-69
2021/07/18 01:48:34;;;;;;;6.80;6.10;;;;;;;18.40;91.92;99069.09;4990483;28;103210;-69
2021/07/18 01:51:02;;;;;;;7.53;6.82;;;;;;;18.30;91.87;99061.13;4991285;28;102665;-69
2021/07/18 01:53:30;;;;;;;9.48;8.45;;;;;;;18.02;93.57;99062.16;4993767;28;102940;-69
2021/07/18 01:55:58;;;;;;;10.23;9.02;;;;;;;17.96;93.56;99068.94;4990971;28;103192;-69
2021/07/18 01:58:29;;;;;;;9.32;7.22;;;;;;;17.88;94.60;99060.00;4988475;28;103196;-69
2021/07/18 02:00:57;;;;;;;8.18;7.35;;;;;;;17.95;93.91;99061.91;4988736;28;103900;-69
2021/07/18 02:03:25;;;;;;;8.60;7.38;;;;;;;18.02;93.34;99064.00;4992297;28;102813;-70
2021/07/18 02:05:53;;;;;;;7.45;6.85;;;;;;;18.03;92.65;99063.84;4992063;28;103190;-69
2021/07/18 02:08:21;;;;;;;7.57;6.88;;;;;;;18.02;92.22;99058.66;4968372;28;103085;-68
2021/07/18 02:10:49;;;;;;;5.75;5.25;;;;;;;18.02;92.44;99061.34;4992068;28;102578;-69
2021/07/18 02:13:18;;;;;;;5.45;4.95;;;;;;;18.04;91.89;99067.38;4990280;28;102644;-69
2021/07/18 02:15:47;;;;;;;5.47;4.85;;;;;;;18.07;91.25;99064.38;4967990;28;103274;-69
2021/07/18 02:18:16;;;;;;;6.20;5.60;;;;;;;18.03;91.20;99063.84;4992162;28;103821;-69
2021/07/18 02:20:44;;;;;;;8.98;7.00;;;;;;;17.93;90.88;99063.91;4968260;28;102710;-69
2021/07/18 02:23:13;;;;;;;5.18;4.68;;;;;;;17.91;91.22;99075.72;4996498;28;102693;-69
2021/07/18 02:25:41;;;;;;;6.07;5.50;;;;;;;17.89;91.08;99073.19;4996684;28;103148;-69
2021/07/18 02:28:09;;;;;;;4.88;4.47;;;;;;;17.89;90.81;99075.88;4994484;28;103094;-69
2021/07/18 02:30:37;;;;;;;5.47;4.97;;;;;;;17.93;90.47;99079.94;4985717;28;102718;-69
2021/07/18 02:33:07;;;;;;;4.72;4.20;;;;;;;17.91;90.10;99081.91;4993996;28;102927;-69
2021/07/18 02:35:35;;;;;;;6.38;5.28;;;;;;;17.89;90.36;99083.88;4992627;28;103148;-69
2021/07/18 02:38:03;;;;;;;4.38;4.07;;;;;;;17.88;89.91;99076.84;4995544;28;104141;-69
2021/07/18 02:40:31;;;;;;;4.40;4.00;;;;;;;17.83;90.09;99078.28;4984156;28;102685;-69
2021/07/18 02:42:59;;;;;;;5.47;4.97;;;;;;;17.76;90.09;99077.19;4991786;28;102686;-69
2021/07/18 02:45:30;;;;;;;5.65;5.10;;;;;;;17.70;90.15;99083.97;4995352;28;103190;-69
2021/07/18 02:47:58;;;;;;;5.90;5.28;;;;;;;17.60;90.41;99082.34;4993966;28;104245;-69
2021/07/18 02:50:29;;;;;;;8.40;6.15;;;;;;;17.41;90.33;99083.19;4994232;28;103671;-69
2021/07/18 02:52:57;;;;;;;11.50;5.90;;;;;;;16.97;93.20;99094.50;4996767;28;102640;-69
2021/07/18 02:55:25;;;;;;;5.82;5.05;;;;;;;17.06;93.21;99085.66;4997060;28;103344;-70
2021/07/18 02:57:53;;;;;;;7.32;5.65;;;;;;;17.06;92.61;99088.31;4993443;28;103081;-68
2021/07/18 03:00:24;;;;;;;7.88;5.65;;;;;;;17.06;92.66;99083.81;4991760;28;102644;-69
2021/07/18 03:02:53;;;;;;;5.32;4.88;;;;;;;17.09;92.07;99088.88;4996816;28;102683;-68
2021/07/18 03:05:21;;;;;;;6.53;5.47;;;;;;;17.07;91.68;99095.31;4969297;28;104795;-69
2021/07/18 03:07:50;;;;;;;7.50;6.10;;;;;;;17.04;92.39;99091.09;4996160;28;103819;-69
2021/07/18 03:10:19;;;;;;;5.28;4.78;;;;;;;17.03;92.06;99084.09;4993076;28;102696;-69
2021/07/18 03:12:47;;;;;;;5.13;4.63;;;;;;;16.97;92.78;99092.69;4998457;28;102668;-69
2021/07/18 03:15:16;;;;;;;9.15;6.30;;;;;;;16.93;93.13;99093.06;4984407;28;103247;-69
2021/07/18 03:17:45;;;;;;;5.80;5.20;;;;;;;16.95;93.04;99091.13;4992836;28;103299;-69
2021/07/18 03:20:16;;;;;;;8.38;5.95;;;;;;;16.91;92.81;99090.56;4995609;28;102651;-69
2021/07/18 03:22:45;;;;;;;8.10;6.40;;;;;;;16.96;92.67;99093.66;4992053;28;102810;-69
2021/07/18 03:25:15;;;;;;;5.18;4.68;;;;;;;17.04;92.52;99096.44;4994151;28;103205;-69
2021/07/18 03:27:44;;;;;;;4.63;4.22;;;;;;;17.08;92.38;99091.69;4994681;28;103045;-69
2021/07/18 03:30:14;;;;;;;4.40;4.00;;;;;;;17.16;91.88;99100.66;4994766;28;102585;-69
2021/07/18 03:32:43;;;;;;;4.90;4.40;;;;;;;17.23;91.45;99100.94;4995906;28;102774;-69
2021/07/18 03:35:12;;;;;;;4.78;4.38;;;;;;;17.25;91.36;99104.31;4989706;28;103194;-69
2021/07/18 03:37:41;;;;;;;5.65;4.90;;;;;;;17.20;91.42;99095.88;4994583;28;103039;-70
2021/07/18 03:40:12;;;;;;;6.88;6.20;;;;;;;17.18;91.49;99092.50;4993689;28;102546;-69
2021/07/18 03:42:42;;;;;;;5.97;5.07;;;;;;;17.17;91.35;99099.69;4992383;28;102679;-69
2021/07/18 03:45:11;;;;;;;4.75;4.35;;;;;;;17.22;90.65;99085.91;4967069;28;104386;-68
2021/07/18 03:47:39;;;;;;;6.43;4.25;;;;;;;17.25;90.13;99088.28;4994647;28;103079;-69
2021/07/18 03:50:09;;;;;;;3.78;3.47;;;;;;;17.24;90.30;99086.59;4993843;28;102664;-69
2021/07/18 03:52:37;;;;;;;7.10;6.28;;;;;;;17.13;90.02;99094.75;4992895;28;102659;-68
2021/07/18 03:55:06;;;;;;;6.05;5.45;;;;;;;17.12;90.44;99099.25;4995303;28;103188;-68
2021/07/18 03:57:34;;;;;;;6.10;5.50;;;;;;;17.07;90.24;99106.00;4994354;28;103103;-69
2021/07/18 04:00:05;;;;;;;7.25;5.07;;;;;;;17.13;90.58;99097.44;4985206;28;102686;-70
2021/07/18 04:02:33;;;;;;;9.43;5.88;;;;;;;17.04;90.41;99095.63;4969167;28;102761;-69
2021/07/18 04:05:02;;;;;;;5.70;4.78;;;;;;;17.05;91.26;99095.47;4995137;28;103616;-69
2021/07/18 04:07:33;;;;;;;5.65;5.00;;;;;;;17.10;90.50;99100.38;4995689;28;103750;-70
2021/07/18 04:10:02;;;;;;;8.43;4.93;;;;;;;17.14;89.85;99099.97;4991090;28;102599;-70
2021/07/18 04:12:30;;;;;;;4.13;3.80;;;;;;;17.17;90.09;99101.50;4995087;28;102653;-73
2021/07/18 04:14:58;;;;;;;4.30;4.00;;;;;;;17.18;89.60;99109.34;4992163;28;103149;-73
2021/07/18 04:17:27;;;;;;;5.20;4.38;;;;;;;17.16;89.24;99103.31;4991309;28;103181;-74
2021/07/18 04:19:56;;;;;;;3.88;3.47;;;;;;;17.07;89.74;99116.66;4990412;28;102627;-74
2021/07/18 04:22:24;;;;;;;3.88;3.58;;;;;;;17.06;89.54;99109.66;4992016;28;102807;-74
2021/07/18 04:24:52;;;;;;;5.60;4.57;;;;;;;17.12;88.38;99104.59;4993133;28;103142;-73
2021/07/18 04:27:20;;;;;;;4.22;3.83;;;;;;;17.08;89.43;99103.19;4975432;28;106101;-73
2021/07/18 04:29:48;;;;;;;5.05;3.72;;;;;;;17.02;90.19;99108.25;4997064;28;102576;-73
2021/07/18 04:32:18;;;;;;;4.78;4.07;;;;;;;17.11;89.34;99104.75;4994535;28;102750;-73
2021/07/18 04:34:47;;;;;;;6.32;4.32;;;;;;;17.10;88.88;99101.22;4991572;28;103155;-76
2021/07/18 04:37:15;;;;;;;4.55;4.07;;;;;;;17.23;88.73;99108.94;4994923;28;103096;-78
2021/07/18 04:39:43;;;;;;;6.95;5.18;;;;;;;17.11;88.96;99112.75;4989669;28;102695;-76
2021/07/18 04:42:11;;;;;;;6.22;4.78;;;;;;;17.24;88.58;99108.78;4993844;28;102634;-75
2021/07/18 04:44:39;;;;;;;5.20;4.20;;;;;;;17.25;88.49;99115.81;4976384;28;103316;-76
2021/07/18 04:47:07;;;;;;;7.05;5.00;;;;;;;17.25;88.09;99114.97;4989005;28;104411;-82
2021/07/18 04:49:36;;;;;;;7.88;4.75;;;;;;;17.24;87.58;99116.81;4990240;28;102615;-72
2021/07/18 04:52:06;;;;;;;5.25;4.38;;;;;;;17.28;86.57;99117.38;4993882;28;102697;-72
2021/07/18 04:54:33;;;;;;;5.78;4.85;;;;;;;17.12;86.93;99109.09;4966255;28;106895;-72
2021/07/18 04:57:01;;;;;;;9.93;4.72;;;;;;;17.09;87.00;99114.72;4977355;28;105963;-73
2021/07/18 04:59:29;;;;;;;4.93;4.07;;;;;;;17.26;86.38;99116.69;4980656;28;103988;-72
2021/07/18 05:01:57;;;;;;;7.18;4.22;;;;;;;17.29;85.66;99116.41;4993053;28;102887;-73
2021/07/18 05:04:26;;;;;;;5.88;3.88;;;;;;;17.40;84.99;99124.25;4982614;28;106002;-74
2021/07/18 05:06:54;;;;;;;3.80;3.38;;;;;;;17.47;84.70;99125.34;4992509;28;103192;-75
2021/07/18 05:09:25;;;;;;;4.45;3.70;;;;;;;17.59;84.58;99129.56;4993349;28;102813;-75
2021/07/18 05:11:52;;;;;;;6.35;3.67;;;;;;;17.63;84.34;99125.59;4976357;28;103044;-75
2021/07/18 05:14:20;;;;;;;6.60;4.07;;;;;;;17.64;84.08;99127.31;4993409;28;103228;-75
2021/07/18 05:16:48;;;;;;;8.20;3.88;;;;;;;17.69;84.31;99127.69;4994003;28;102562;-74
2021/07/18 05:19:16;;;;;;;7.63;4.45;;;;;;;17.54;85.32;99131.84;4995630;28;102649;-75
2021/07/18 05:21:44;;;;;;;5.88;3.70;;;;;;;17.66;85.04;99125.31;4993527;28;103623;-75
2021/07/18 05:24:12;;;;;;;5.93;3.60;;;;;;;17.87;84.17;99133.97;4993606;28;103204;-75
2021/07/18 05:26:42;;;;;;;4.95;3.97;;;;;;;17.94;83.68;99139.56;4995290;28;103802;-74
2021/07/18 05:29:10;;;;;;;6.93;3.42;;;;;;;17.84;83.20;99128.09;4996510;28;102622;-74
2021/07/18 05:31:38;;;;;;;6.43;3.85;;;;;;;17.89;82.64;99132.00;4992404;28;102602;-74
2021/07/18 05:34:06;;;;;;;5.50;3.60;;;;;;;17.66;82.65;99133.34;4991237;28;103340;-74
2021/07/18 05:36:34;;;;;;;6.90;3.25;;;;;;;17.75;80.44;99128.94;4981105;28;106215;-74
2021/07/18 05:39:02;;;;;;;5.97;3.03;;;;;;;17.66;80.91;99129.81;4992160;28;102596;-75
2021/07/18 05:41:30;;;;;;;4.85;2.90;;;;;;;17.80;79.91;99132.03;4992063;28;102672;-74
2021/07/18 05:43:59;;;;;;;5.40;3.10;;;;;;;17.81;79.04;99137.25;4997333;28;103172;-74
2021/07/18 05:46:27;;;;;;;4.10;2.70;;;;;;;17.95;79.52;99138.59;4987988;28;103668;-74
2021/07/18 05:48:55;;;;;;;3.63;2.72;;;;;;;17.97;79.25;99136.59;4976682;28;102726;-74
2021/07/18 05:51:23;;;;;;;5.10;2.60;;;;;;;18.11;79.74;99135.28;4990107;28;102814;-74
2021/07/18 05:53:51;;;;;;;3.05;2.47;;;;;;;17.98;78.71;99130.28;4993247;28;103393;-74
2021/07/18 05:56:20;;;;;;;5.53;2.50;;;;;;;18.13;76.35;99133.31;4993020;28;103103;-74
2021/07/18 05:58:48;;;;;;;3.15;2.38;;;;;;;18.09;76.10;99137.25;4993759;28;102639;-75
2021/07/18 06:01:18;;;;;;;2.78;2.15;;;;;;;18.24;76.39;99139.31;4988197;28;102723;-82
2021/07/18 06:03:46;;;;;;;2.33;2.10;;;;;;;18.35;75.85;99127.56;4997197;28;103875;-74
2021/07/18 06:06:14;;;;;;;2.65;1.80;;;;;;;18.44;75.76;99143.53;4994888;28;103071;-76
2021/07/18 06:08:43;;;;;;;3.72;2.10;;;;;;;18.56;75.42;99141.53;4997481;28;102617;-75
2021/07/18 06:11:11;;;;;;;3.90;2.08;;;;;;;18.48;74.60;99144.13;4994277;28;102640;-75
2021/07/18 06:13:39;;;;;;;5.68;2.20;;;;;;;18.40;74.98;99146.69;4995944;28;103480;-76
2021/07/18 06:16:08;;;;;;;6.00;2.20;;;;;;;18.45;74.05;99144.38;4956572;28;104338;-77
2021/07/18 06:18:37;;;;;;;4.38;2.35;;;;;;;18.64;74.46;99146.97;4975946;28;102704;-73
2021/07/18 06:21:05;;;;;;;3.30;2.17;;;;;;;18.44;74.69;99154.25;4959906;28;103332;-75
2021/07/18 06:23:33;;;;;;;2.67;2.42;;;;;;;18.65;74.45;99154.03;4963227;28;105882;-73
2021/07/18 06:26:04;;;;;;;4.22;2.22;;;;;;;18.67;73.75;99165.41;4987015;28;103179;-74
2021/07/18 06:28:33;;;;;;;6.72;2.25;;;;;;;18.78;74.25;99161.69;4987345;28;102779;-74
2021/07/18 06:31:01;;;;;;;4.55;2.28;;;;;;;18.96;75.23;99159.84;4992295;28;102583;-74
2021/07/18 06:33:29;;;;;;;3.55;2.40;;;;;;;19.01;73.34;99169.13;4976620;28;103366;-75
2021/07/18 06:35:59;;;;;;;3.08;2.50;;;;;;;19.03;72.69;99159.09;4964257;28;105028;-77
2021/07/18 06:38:27;;;;;;;2.83;2.30;;;;;;;19.08;71.27;99164.84;4994216;28;102689;-76
2021/07/18 06:40:55;;;;;;;3.95;2.20;;;;;;;18.82;72.08;99155.88;5000224;28;102715;-82
2021/07/18 06:43:23;;;;;;;4.20;2.13;;;;;;;18.81;72.63;99156.00;4991507;28;103416;-77
2021/07/18 06:45:51;;;;;;;4.75;2.40;;;;;;;18.94;72.27;99157.34;4981854;28;103318;-79
2021/07/18 06:48:19;;;;;;;2.72;1.92;;;;;;;19.08;72.48;99159.50;4995547;28;102872;-77
2021/07/18 06:50:47;;;;;;;5.40;2.30;;;;;;;19.19;71.58;99158.41;4992954;28;102594;-77
2021/07/18 06:53:16;;;;;;;3.35;2.45;;;;;;;19.18;73.17;99163.91;4996313;28;103693;-78
2021/07/18 06:55:44;;;;;;;3.75;2.05;;;;;;;19.21;72.30;99147.53;4997606;28;103200;-77
2021/07/18 06:58:12;;;;;;;6.60;2.63;;;;;;;19.53;72.61;99163.91;4999915;28;102690;-79
2021/07/18 07:00:41;;;;;;;3.28;2.20;;;;;;;19.50;71.61;99154.34;4972917;28;102819;-77
2021/07/18 07:03:09;;;;;;;3.35;2.00;;;;;;;19.76;71.29;99153.53;4998766;28;103383;-77
2021/07/18 07:05:37;;;;;;;7.25;2.53;;;;;;;19.64;72.06;99160.97;4992007;28;103057;-76
2021/07/18 07:08:06;;;;;;;4.32;2.13;;;;;;;19.89;70.76;99159.28;4995378;28;102956;-77
2021/07/18 07:10:36;;;;;;;2.55;2.08;;;;;;;20.16;70.24;99156.41;4995838;28;102618;-76
2021/07/18 07:13:04;;;;;;;7.80;2.40;;;;;;;19.78;71.77;99163.09;4982595;28;104272;-77
2021/07/18 07:15:32;;;;;;;4.47;2.53;;;;;;;19.85;70.31;99164.13;4958424;28;106063;-74
2021/07/18 07:18:01;;;;;;;2.92;2.10;;;;;;;19.65;70.47;99173.34;4996392;28;102546;-73
2021/07/18 07:20:29;;;;;;;3.90;2.40;;;;;;;20.00;70.53;99169.75;4994183;28;102879;-71
2021/07/18 07:22:57;;;;;;;4.80;2.10;;;;;;;20.11;69.12;99170.31;4994347;28;103455;-72
2021/07/18 07:25:26;;;;;;;7.50;2.10;;;;;;;20.09;69.17;99172.31;4992343;28;104337;-72
2021/07/18 07:27:55;;;;;;;4.45;2.17;;;;;;;20.36;69.68;99168.63;4993148;28;102675;-73
2021/07/18 07:30:24;;;;;;;4.95;2.42;;;;;;;20.09;70.49;99169.63;4976157;28;102727;-72
2021/07/18 07:32:52;;;;;;;4.18;2.45;;;;;;;20.29;69.45;99172.13;4992368;28;102616;-73
2021/07/18 07:35:19;;;;;;;3.10;1.80;;;;;;;20.98;68.40;99159.22;4995022;28;103068;-73
2021/07/18 07:37:47;;;;;;;2.92;2.08;;;;;;;21.15;67.92;99160.13;4985103;28;103053;-73
2021/07/18 07:40:18;;;;;;;3.58;2.10;;;;;;;20.95;66.73;99162.25;4994562;28;103184;-73
2021/07/18 07:42:46;;;;;;;3.38;2.25;;;;;;;21.17;68.02;99164.31;4990929;28;103543;-73
2021/07/18 07:45:16;;;;;;;2.97;2.65;;;;;;;21.21;66.37;99165.69;4993222;28;103165;-73
2021/07/18 07:47:44;;;;;;;4.93;2.30;;;;;;;21.41;67.36;99159.97;4992002;28;102599;-73
2021/07/18 07:50:14;;;;;;;4.03;1.95;;;;;;;21.13;68.19;99154.94;4997339;28;102858;-74
2021/07/18 07:52:42;;;;;;;4.10;2.08;;;;;;;21.12;66.10;99161.31;4985182;28;105569;-73
2021/07/18 07:55:11;;;;;;;4.18;2.13;;;;;;;22.19;66.52;99166.41;4997571;28;103054;-74
2021/07/18 07:57:39;;;;;;;3.22;2.45;;;;;;;22.35;64.86;99161.81;4985317;28;102619;-74
2021/07/18 08:00:09;;;;;;;7.57;2.42;;;;;;;22.12;67.10;99160.88;4991464;28;103183;-74
2021/07/18 08:02:41;;;;;;;8.48;2.60;;;;;;;21.57;65.71;99165.34;4993124;28;103221;-74
2021/07/18 08:05:10;;;;;;;6.13;2.78;;;;;;;22.06;64.00;99161.59;4993863;28;103185;-75
2021/07/18 08:07:38;;;;;;;2.72;1.85;;;;;;;23.02;63.06;99156.78;4995896;28;102581;-74
2021/07/18 08:10:08;;;;;;;3.03;2.35;;;;;;;23.79;60.10;99160.22;4995150;28;102606;-74
2021/07/18 08:12:37;;;;;;;4.30;2.22;;;;;;;23.30;61.63;99163.28;4994570;28;103604;-78
2021/07/18 08:15:06;;;;;;;4.28;2.60;;;;;;;22.92;62.37;99153.47;4997679;28;103102;-82
2021/07/18 08:17:35;;;;;;;4.47;2.50;;;;;;;23.11;63.63;99158.41;4993727;28;102637;-83
2021/07/18 08:20:07;;;;;;;6.13;2.30;;;;;;;22.79;63.60;99147.84;4978272;28;103980;-83
2021/07/18 08:22:37;;;;;;;2.70;2.45;;;;;;;22.91;64.00;99143.72;4972001;28;103274;-76
2021/07/18 08:25:07;;;;;;;3.58;2.58;;;;;;;23.52;62.75;99140.91;4992619;28;103159;-81
2021/07/18 08:27:36;;;;;;;4.05;2.30;;;;;;;24.57;59.54;99137.06;4993458;28;102757;-77
2021/07/18 08:30:07;;;;;;;4.65;2.67;;;;;;;24.83;58.77;99139.25;4991567;28;102690;-77
2021/07/18 08:32:35;;;;;;;6.95;2.90;;;;;;;23.66;61.00;99148.19;4978989;28;103307;-84
2021/07/18 08:35:06;;;;;;;6.30;2.63;;;;;;;23.79;59.89;99149.41;4991708;28;104165;-85
2021/07/18 08:37:34;;;;;;;2.60;2.30;;;;;;;23.54;61.82;99144.28;4965534;28;103029;-85
2021/07/18 08:40:05;;;;;;;4.53;2.35;;;;;;;24.55;59.19;99139.13;4976285;28;102687;-85
2021/07/18 08:42:35;;;;;;;4.15;2.40;;;;;;;24.11;59.60;99146.44;4993109;28;103408;-86
2021/07/18 08:45:05;;;;;;;3.72;2.30;;;;;;;25.15;59.67;99132.53;4991088;28;103696;-85
2021/07/18 08:47:34;;;;;;;2.65;2.13;;;;;;;25.22;56.77;99136.97;4984282;28;102680;-85
2021/07/18 08:50:03;;;;;;;3.13;2.33;;;;;;;25.58;58.73;99136.91;4994799;28;102745;-83
2021/07/18 08:52:33;;;;;;;4.35;2.50;;;;;;;26.63;55.91;99132.16;4995328;28;103337;-84
2021/07/18 08:55:08;;;;;;;3.10;2.33;;;;;;;25.12;57.94;99135.63;4991455;28;103150;-80
2021/07/18 08:57:39;;;;;;;7.18;2.92;;;;;;;24.82;58.41;99134.03;4990159;28;102691;-82
2021/07/18 09:00:08;;;;;;;3.35;2.50;;;;;;;24.68;59.48;99127.63;4989583;28;102726;-83
2021/07/18 09:02:36;;;;;;;6.57;2.63;;;;;;;25.08;59.16;99123.50;4989964;28;103655;-84
2021/07/18 09:05:08;;;;;;;2.38;2.17;;;;;;;25.71;57.79;99126.16;4958540;28;103177;-83
2021/07/18 09:07:45;;;;;;;4.03;2.67;;;;;;;25.18;57.02;99129.44;4975503;28;102764;-83
2021/07/18 09:10:15;;;;;;;5.90;2.40;;;;;;;26.38;54.95;99126.44;4969622;28;102646;-83
2021/07/18 09:13:02;;;;;;;4.80;2.70;;;;;;;25.12;57.37;99130.22;4987457;28;103498;-82
2021/07/18 09:15:45;;;;;;;3.95;2.45;;;;;;;27.03;54.09;99122.28;4973769;28;103157;-83
2021/07/18 09:18:14;;;;;;;3.97;2.47;;;;;;;28.15;53.94;99112.28;4966888;28;102729;-83
2021/07/18 09:20:44;;;;;;;7.03;2.67;;;;;;;26.78;52.85;99118.44;4980814;28;102861;-81
2021/07/18 09:23:16;;;;;;;5.60;2.47;;;;;;;26.17;55.50;99125.66;4957005;28;106627;-83
2021/07/18 09:25:44;;;;;;;4.85;2.60;;;;;;;26.62;55.17;99114.22;4985761;28;103326;-84
2021/07/18 09:28:15;;;;;;;5.30;2.60;;;;;;;26.53;54.34;99104.59;4985212;28;102672;-86
2021/07/18 09:30:45;;;;;;;3.22;2.25;;;;;;;25.58;55.92;99111.72;4982054;28;102716;-84
2021/07/18 09:33:24;;;;;;;3.50;2.50;;;;;;;27.51;53.33;99110.25;4984511;28;103213;-82
2021/07/18 09:36:10;;;;;;;3.97;2.40;;;;;;;25.45;55.70;99109.72;4987498;28;103738;-84
2021/07/18 09:38:40;;;;;;;5.25;2.42;;;;;;;25.59;56.43;99099.88;4950744;28;102786;-86
2021/07/18 09:41:09;;;;;;;4.78;2.35;;;;;;;25.10;59.58;99107.94;4984744;28;102682;-84
2021/07/18 09:43:37;;;;;;;3.38;2.28;;;;;;;25.49;56.97;99111.00;4985351;28;103233;-84
2021/07/18 09:46:08;;;;;;;4.30;2.53;;;;;;;25.28;60.02;99094.81;4977200;28;103072;-83
2021/07/18 09:48:40;;;;;;;3.15;1.92;;;;;;;26.26;57.52;99097.38;4973040;28;103211;-84
2021/07/18 09:51:10;;;;;;;3.33;2.28;;;;;;;25.43;57.18;99098.28;4979853;28;102866;-83
2021/07/18 09:53:41;;;;;;;3.78;2.20;;;;;;;25.83;56.85;99097.53;4978808;28;103247;-79
2021/07/18 09:56:10;;;;;;;2.72;2.00;;;;;;;26.79;56.12;99096.56;4963711;28;106750;-80
2021/07/18 09:58:40;;;;;;;4.75;2.78;;;;;;;26.59;55.15;99100.22;4975801;28;103056;-79
2021/07/18 10:01:16;;;;;;;3.75;2.45;;;;;;;25.47;57.66;99095.97;4968919;28;103747;-79
2021/07/18 10:03:47;;;;;;;4.63;2.50;;;;;;;26.98;55.87;99087.66;4976728;28;103160;-80
2021/07/18 10:06:16;;;;;;;2.20;2.08;;;;;;;26.91;53.95;99085.97;4976794;28;103093;-87
2021/07/18 10:08:47;;;;;;;4.82;2.70;;;;;;;27.03;52.76;99079.72;4979648;28;102706;-81
2021/07/18 10:11:17;;;;;;;4.18;1.98;;;;;;;28.10;53.58;99066.75;4986192;28;103047;-81
2021/07/18 10:13:47;;;;;;;4.55;2.45;;;;;;;27.55;53.28;99073.53;4984921;28;103179;-83
2021/07/18 10:16:16;;;;;;;5.95;2.60;;;;;;;27.04;55.81;99070.56;4986220;28;103120;-82
2021/07/18 10:18:46;;;;;;;4.95;2.20;;;;;;;27.62;53.44;99073.53;4984478;28;102656;-80
2021/07/18 10:21:17;;;;;;;5.05;2.40;;;;;;;26.66;55.48;99072.13;4987287;28;102665;-81
2021/07/18 10:23:48;;;;;;;5.80;2.80;;;;;;;26.08;56.32;99073.53;4966584;28;103200;-81
2021/07/18 10:26:18;;;;;;;5.07;3.00;;;;;;;26.97;54.84;99063.47;4986444;28;103146;-82
2021/07/18 10:28:46;;;;;;;4.72;2.28;;;;;;;26.51;55.51;99068.75;4986894;28;102656;-81
2021/07/18 10:31:19;;;;;;;6.13;2.55;;;;;;;25.96;56.14;99067.03;4984921;28;102759;-81
2021/07/18 10:33:49;;;;;;;5.70;2.50;;;;;;;25.92;55.35;99074.69;4985574;28;103200;-81
2021/07/18 10:36:20;;;;;;;8.13;2.55;;;;;;;26.13;54.65;99076.50;4982734;28;103158;-79
2021/07/18 10:38:50;;;;;;;5.07;2.40;;;;;;;26.68;54.59;99070.03;4976859;28;102659;-75
2021/07/18 10:41:42;;;;;;;3.15;2.08;;;;;;;26.07;54.71;99071.03;4959587;28;102991;-79
2021/07/18 10:44:12;;;;;;;5.60;2.38;;;;;;;26.03;56.46;99086.00;4976746;28;103128;-80
2021/07/18 10:46:55;;;;;;;5.50;2.50;;;;;;;26.52;53.51;99075.00;4959315;28;103553;-80
2021/07/18 10:49:51;;;;;;;3.75;2.17;;;;;;;26.92;55.00;99058.66;4957409;28;102924;-80
2021/07/18 10:52:23;;;;;;;4.78;2.63;;;;;;;26.78;54.44;99064.25;4955298;28;102884;-78
2021/07/18 10:54:52;;;;;;;3.05;2.30;;;;;;;25.91;56.49;99054.06;4958322;28;103260;-80
2021/07/18 10:57:22;;;;;;;4.43;2.45;;;;;;;26.22;55.33;99058.19;4965991;28;103487;-80
2021/07/18 10:59:51;;;;;;;4.18;2.60;;;;;;;25.87;53.55;99066.34;4955915;28;102734;-81
2021/07/18 11:02:21;;;;;;;4.32;2.85;;;;;;;26.07;53.64;99060.19;4963758;28;102602;-80
2021/07/18 11:04:51;;;;;;;5.38;2.42;;;;;;;26.19;54.07;99053.22;4967352;28;104367;-80
2021/07/18 11:07:36;;;;;;;9.07;2.80;;;;;;;27.02;53.50;99064.53;4944058;28;105053;-78
2021/07/18 11:10:20;;;;;;;3.45;2.33;;;;;;;26.82;53.90;99066.34;4954719;28;102824;-81
2021/07/18 11:12:50;;;;;;;4.25;2.67;;;;;;;26.52;54.99;99059.59;4965686;28;103172;-80
2021/07/18 11:15:29;;;;;;;7.13;2.80;;;;;;;26.18;56.63;99059.66;4968306;28;103351;-79
2021/07/18 11:18:00;;;;;;;5.75;2.92;;;;;;;24.84;58.78;99059.03;4971264;28;103111;-80
2021/07/18 11:20:40;;;;;;;4.38;2.78;;;;;;;26.58;54.87;99058.78;4956174;28;102682;-81
2021/07/18 11:23:09;;;;;;;5.10;2.85;;;;;;;26.50;53.88;99057.06;4954691;28;103098;-79
2021/07/18 11:25:45;;;;;;;4.18;2.35;;;;;;;26.71;55.01;99053.38;4943048;28;105851;-80
2021/07/18 11:28:39;;;;;;;5.47;2.40;;;;;;;27.20;53.29;99057.66;4967283;28;103225;-80
2021/07/18 11:31:42;;;;;;;3.00;2.10;;;;;;;26.96;51.65;99046.38;4946993;28;102740;-80
2021/07/18 11:34:23;;;;;;;6.20;3.00;;;;;;;27.85;53.04;99049.44;4959281;28;102674;-79
2021/07/18 11:37:01;;;;;;;5.45;3.22;;;;;;;27.53;52.03;99047.66;4973667;28;103369;-80